Agana, Guam
Current Conditions -  °F | °C
As of 8:54 AM on Tuesday 21 Oct 2014 (Local Time) from PGUM Reporting Station
Clear Clear  
Wind Chill: 86°   Ceiling: Unl
Heat Index: 96°   Visibility: 10mi
Dew Point: 76°   Wind: 8mph
Humidity: 72%   Direction: 50°NE
Pressure: 29.89"   Gusts: NA
Location:  13.4751°N, 144.7484°E
Report Text: PGUM 202254Z 05007KT 10SM CLR 30/24 A2989 RMK AO2 SLP112 P0001 T03000244
Loading
Personal Weather Stations






























Interactive Weather Map
Tropical Storm Tracking
New forecast layout! Learn more

10-Day Weather Forecast

Advertisements
Track Severe Weather on mobile